Time;durP1;ratioP1;P1;durP2;ratioP2;P2;SDS_P1;SDS_P2;PMS_P1;PMS_P2;Temp;Humidity;BMP_temperature;BMP_pressure;BME280_temperature;BME280_humidity;BME280_pressure;Samples;Min_cycle;Max_cycle;Signal;HPM_P1;HPM_P2
2023/04/14 00:01:32;;;;;;;4.40;3.17;;;;;;;5.73;100.00;97357.03;5092256;28;20213;-76
2023/04/14 00:03:59;;;;;;;6.03;3.63;;;;;;;5.68;100.00;97353.84;5092505;28;20207;-76
2023/04/14 00:06:26;;;;;;;4.43;2.97;;;;;;;5.63;100.00;97353.28;5092601;28;20529;-76
2023/04/14 00:08:52;;;;;;;4.57;3.10;;;;;;;5.58;100.00;97347.50;5092450;28;20207;-76
2023/04/14 00:11:19;;;;;;;4.37;3.20;;;;;;;5.54;100.00;97340.78;5091978;28;20223;-76
2023/04/14 00:13:45;;;;;;;4.03;3.10;;;;;;;5.51;100.00;97340.94;5092622;28;20288;-75
2023/04/14 00:16:12;;;;;;;6.63;3.53;;;;;;;5.50;100.00;97333.19;5092443;28;20208;-76
2023/04/14 00:18:40;;;;;;;5.30;3.20;;;;;;;5.40;100.00;97342.53;5091592;28;20324;-76
2023/04/14 00:21:06;;;;;;;7.20;3.20;;;;;;;5.38;100.00;97337.38;5091685;28;20599;-76
2023/04/14 00:23:33;;;;;;;6.37;3.30;;;;;;;5.37;100.00;97340.13;5092437;28;20687;-76
2023/04/14 00:25:59;;;;;;;4.93;2.90;;;;;;;5.35;100.00;97339.34;5092417;28;20302;-76
2023/04/14 00:28:26;;;;;;;5.00;3.27;;;;;;;5.34;100.00;97338.53;5092653;28;20209;-76
2023/04/14 00:30:52;;;;;;;4.70;3.30;;;;;;;5.33;100.00;97338.63;5091478;28;20238;-76
2023/04/14 00:33:19;;;;;;;4.13;3.20;;;;;;;5.28;100.00;97353.78;5092062;28;20210;-78
2023/04/14 00:35:47;;;;;;;4.03;3.37;;;;;;;5.21;100.00;97352.47;5092411;28;20570;-76
2023/04/14 00:38:13;;;;;;;4.73;3.13;;;;;;;5.15;100.00;97363.31;5092228;28;20206;-75
2023/04/14 00:40:40;;;;;;;5.17;3.50;;;;;;;5.09;100.00;97359.28;5091325;28;20226;-76
2023/04/14 00:43:06;;;;;;;4.40;3.30;;;;;;;5.03;100.00;97359.66;5091934;28;20263;-76
2023/04/14 00:45:41;;;;;;;5.13;3.73;;;;;;;4.96;100.00;97362.72;5091901;28;20211;-76
2023/04/14 00:48:08;;;;;;;4.37;3.53;;;;;;;4.88;100.00;97367.56;5091943;28;20225;-76
2023/04/14 00:50:34;;;;;;;5.90;3.60;;;;;;;4.83;100.00;97370.44;5091342;28;20319;-76
2023/04/14 00:53:02;;;;;;;4.93;3.90;;;;;;;4.80;100.00;97357.53;5091974;28;20332;-76
2023/04/14 00:55:29;;;;;;;4.77;3.60;;;;;;;4.78;100.00;97369.88;5091773;28;20567;-76
2023/04/14 00:57:56;;;;;;;5.63;4.00;;;;;;;4.75;100.00;97364.81;5091843;28;20220;-75
2023/04/14 01:00:23;;;;;;;7.83;4.27;;;;;;;4.74;100.00;97373.59;5094563;28;20238;-78
2023/04/14 01:02:50;;;;;;;6.80;4.67;;;;;;;4.76;100.00;97376.16;5099967;28;20205;-78
2023/04/14 01:05:16;;;;;;;6.93;4.53;;;;;;;4.71;100.00;97376.38;5092161;28;20207;-78
2023/04/14 01:07:43;;;;;;;6.30;4.40;;;;;;;4.70;100.00;97385.19;5092075;28;20298;-78
2023/04/14 01:10:11;;;;;;;6.77;4.73;;;;;;;4.61;100.00;97383.09;5090886;28;20240;-78
2023/04/14 01:13:02;;;;;;;6.87;4.80;;;;;;;4.61;100.00;97383.09;5091469;28;20214;-78
2023/04/14 01:15:33;;;;;;;5.63;4.90;;;;;;;4.61;100.00;97380.47;5092029;28;20295;-78
2023/04/14 01:18:07;;;;;;;6.93;5.33;;;;;;;4.62;100.00;97389.16;5091626;28;20217;-79
2023/04/14 01:20:37;;;;;;;5.87;5.20;;;;;;;4.61;100.00;97397.94;5090780;28;20234;-78
2023/04/14 01:23:07;;;;;;;7.47;5.40;;;;;;;4.61;100.00;97396.19;5091378;28;20214;-78
2023/04/14 01:25:57;;;;;;;6.97;5.23;;;;;;;4.49;100.00;97394.25;5091301;28;20214;-77
2023/04/14 01:28:41;;;;;;;6.20;5.17;;;;;;;4.41;100.00;97396.44;5091518;28;20223;-77
2023/04/14 01:31:20;;;;;;;8.03;5.83;;;;;;;4.38;100.00;97393.16;5090291;28;20233;-77
2023/04/14 01:33:53;;;;;;;7.30;5.30;;;;;;;4.31;100.00;97404.91;5091228;28;20206;-77
2023/04/14 01:36:28;;;;;;;7.23;5.67;;;;;;;4.24;100.00;97411.41;5091555;28;20214;-78
2023/04/14 01:38:56;;;;;;;6.53;5.00;;;;;;;4.13;100.00;97411.16;5091225;28;20676;-77
2023/04/14 01:41:27;;;;;;;7.33;5.30;;;;;;;4.04;100.00;97412.50;5090702;28;20214;-78
2023/04/14 01:43:54;;;;;;;6.47;4.57;;;;;;;3.97;100.00;97421.63;5091170;28;20218;-77
2023/04/14 01:46:22;;;;;;;8.43;5.77;;;;;;;3.93;100.00;97409.66;5090912;28;20215;-78
2023/04/14 01:48:50;;;;;;;8.33;6.27;;;;;;;3.89;100.00;97408.13;5091193;28;20712;-78
2023/04/14 01:51:18;;;;;;;7.93;5.97;;;;;;;3.82;100.00;97411.13;5090414;28;20608;-77
2023/04/14 01:53:46;;;;;;;9.30;6.17;;;;;;;3.78;100.00;97415.69;5091383;28;20207;-78
2023/04/14 01:56:16;;;;;;;9.00;6.60;;;;;;;3.77;100.00;97419.25;5091077;28;20205;-77
2023/04/14 01:58:46;;;;;;;7.83;6.17;;;;;;;3.72;100.00;97418.63;5090925;28;20296;-77
2023/04/14 02:01:13;;;;;;;7.83;6.10;;;;;;;3.70;100.00;97428.34;5090458;28;20229;-77
2023/04/14 02:03:43;;;;;;;7.03;5.90;;;;;;;3.67;100.00;97418.03;5091131;28;20753;-78
2023/04/14 02:06:12;;;;;;;10.70;6.60;;;;;;;3.65;100.00;97424.25;5091083;28;20213;-77
2023/04/14 02:08:41;;;;;;;9.93;6.63;;;;;;;3.62;100.00;97427.88;5091008;28;20685;-78
2023/04/14 02:11:09;;;;;;;9.37;6.63;;;;;;;3.61;100.00;97418.34;5090191;28;20231;-77
2023/04/14 02:13:37;;;;;;;9.53;6.70;;;;;;;3.60;100.00;97421.06;5090647;28;20696;-77
2023/04/14 02:16:06;;;;;;;9.47;7.07;;;;;;;3.61;100.00;97418.34;5090772;28;20667;-77
2023/04/14 02:18:33;;;;;;;10.20;7.17;;;;;;;3.60;100.00;97418.47;5090782;28;20656;-77
2023/04/14 02:21:03;;;;;;;9.00;6.43;;;;;;;3.56;100.00;97417.75;5053666;22;20270;-75
2023/04/14 02:23:31;;;;;;;11.57;7.33;;;;;;;3.56;100.00;97415.13;5008144;28;20213;-77
2023/04/14 02:26:02;;;;;;;8.90;7.17;;;;;;;3.62;100.00;97414.81;5008330;28;20678;-76
2023/04/14 02:28:32;;;;;;;10.97;7.00;;;;;;;3.69;100.00;97421.44;5008043;28;20609;-78
2023/04/14 02:31:03;;;;;;;10.60;7.50;;;;;;;3.68;100.00;97419.72;5007160;28;20244;-76
2023/04/14 02:33:34;;;;;;;9.07;6.97;;;;;;;3.66;100.00;97410.28;5007972;28;20224;-76
2023/04/14 02:36:04;;;;;;;8.80;7.10;;;;;;;3.69;100.00;97410.13;5007900;28;20212;-76
2023/04/14 02:38:34;;;;;;;10.13;7.20;;;;;;;3.76;100.00;97414.94;5008294;28;20217;-76
2023/04/14 02:41:07;;;;;;;11.90;7.93;;;;;;;3.76;100.00;97409.72;5007529;28;20621;-76
2023/04/14 02:43:40;;;;;;;8.80;6.47;;;;;;;3.82;100.00;97406.78;5011535;28;20250;-76
2023/04/14 02:46:09;;;;;;;11.30;7.53;;;;;;;3.90;100.00;97409.81;5011488;28;20229;-76
2023/04/14 02:48:36;;;;;;;9.33;7.17;;;;;;;3.90;100.00;97409.81;5011124;28;20603;-76
2023/04/14 02:51:08;;;;;;;10.30;7.70;;;;;;;3.91;100.00;97411.50;5010496;28;20232;-76
2023/04/14 02:53:35;;;;;;;10.50;7.37;;;;;;;3.94;100.00;97416.56;5011572;28;20219;-76
2023/04/14 02:56:02;;;;;;;12.73;7.83;;;;;;;4.01;100.00;97412.69;5011169;28;20343;-76
2023/04/14 02:58:29;;;;;;;10.93;7.57;;;;;;;4.08;100.00;97413.16;5011010;28;20213;-76
2023/04/14 03:00:57;;;;;;;13.80;8.10;;;;;;;4.17;100.00;97415.31;5010454;28;20224;-76
2023/04/14 03:03:26;;;;;;;11.30;7.93;;;;;;;4.14;100.00;97416.31;5011157;28;20213;-76
2023/04/14 03:05:53;;;;;;;10.63;7.37;;;;;;;4.14;100.00;97413.69;5011168;28;20221;-76
2023/04/14 03:08:21;;;;;;;11.20;7.77;;;;;;;4.19;100.00;97418.66;5011126;28;20208;-76
2023/04/14 03:10:48;;;;;;;11.63;8.03;;;;;;;4.18;100.00;97415.22;5010311;28;20684;-76
2023/04/14 03:13:17;;;;;;;10.67;7.63;;;;;;;4.24;100.00;97417.50;5010968;28;20306;-76
2023/04/14 03:15:44;;;;;;;10.17;7.33;;;;;;;4.26;100.00;97415.63;5010741;28;20239;-76
2023/04/14 03:18:12;;;;;;;12.23;7.30;;;;;;;4.20;100.00;97417.72;5010855;28;20215;-76
2023/04/14 03:20:42;;;;;;;8.60;7.00;;;;;;;4.23;100.00;97412.34;5009952;28;20230;-76
2023/04/14 03:23:11;;;;;;;10.77;6.80;;;;;;;4.22;100.00;97411.50;5011078;28;20218;-76
2023/04/14 03:25:40;;;;;;;10.30;7.43;;;;;;;4.18;100.00;97410.00;5010622;28;20216;-76
2023/04/14 03:28:11;;;;;;;13.90;7.70;;;;;;;4.20;100.00;97408.13;5010224;28;20211;-76
2023/04/14 03:30:43;;;;;;;11.43;7.33;;;;;;;4.18;100.00;97416.97;5009792;28;20239;-76
2023/04/14 03:33:12;;;;;;;12.13;7.30;;;;;;;4.18;100.00;97410.00;5010241;28;20212;-76
2023/04/14 03:35:39;;;;;;;13.73;7.63;;;;;;;4.24;100.00;97414.88;5010254;28;20216;-76
2023/04/14 03:38:08;;;;;;;11.43;7.33;;;;;;;4.22;100.00;97414.09;5010211;28;20214;-76
2023/04/14 03:40:37;;;;;;;12.97;8.53;;;;;;;4.24;100.00;97420.13;5009385;28;20630;-76
2023/04/14 03:43:11;;;;;;;9.57;6.97;;;;;;;4.26;100.00;97410.41;5010010;28;20241;-76
2023/04/14 03:45:39;;;;;;;8.47;7.23;;;;;;;4.28;100.00;97405.91;5010379;28;20253;-76
2023/04/14 03:48:09;;;;;;;9.13;7.13;;;;;;;4.34;100.00;97416.03;5010248;28;20310;-76
2023/04/14 03:50:40;;;;;;;9.00;6.83;;;;;;;4.35;100.00;97409.88;5009449;28;20238;-76
2023/04/14 03:53:09;;;;;;;10.47;7.03;;;;;;;4.37;100.00;97408.03;5009108;28;20243;-76
2023/04/14 03:55:37;;;;;;;10.43;7.07;;;;;;;4.36;100.00;97408.97;5010351;28;20218;-76
2023/04/14 03:58:08;;;;;;;11.00;7.20;;;;;;;4.33;100.00;97410.91;5010393;28;20219;-76
2023/04/14 04:00:36;;;;;;;10.93;6.23;;;;;;;4.28;100.00;97416.38;5009599;28;20285;-76
2023/04/14 04:03:04;;;;;;;7.57;6.07;;;;;;;4.26;100.00;97418.25;5010009;28;20211;-76
2023/04/14 04:05:32;;;;;;;9.10;6.43;;;;;;;4.20;100.00;97417.72;5009913;28;20240;-76
2023/04/14 04:08:02;;;;;;;10.90;6.30;;;;;;;4.13;100.00;97417.25;5009643;28;20221;-76
2023/04/14 04:10:30;;;;;;;8.37;6.60;;;;;;;4.13;100.00;97419.84;5009188;28;20286;-76
2023/04/14 04:12:58;;;;;;;9.57;6.43;;;;;;;4.07;100.00;97425.44;5009685;28;20682;-76
2023/04/14 04:15:28;;;;;;;12.27;6.93;;;;;;;4.06;100.00;97417.66;5009660;28;20220;-76
2023/04/14 04:17:55;;;;;;;14.00;7.00;;;;;;;4.00;100.00;97415.38;5009475;28;20213;-76
2023/04/14 04:20:23;;;;;;;8.27;5.63;;;;;;;3.96;100.00;97417.31;5008561;28;20657;-76
2023/04/14 04:22:51;;;;;;;8.37;5.37;;;;;;;3.95;100.00;97420.88;5009576;28;20205;-76
2023/04/14 04:25:19;;;;;;;7.67;4.80;;;;;;;3.91;100.00;97408.06;5009254;28;20208;-76
2023/04/14 04:27:46;;;;;;;10.77;4.80;;;;;;;3.80;100.00;97408.59;5009325;28;20698;-76
2023/04/14 04:30:15;;;;;;;9.17;4.83;;;;;;;3.83;100.00;97408.47;5008476;28;20284;-76
2023/04/14 04:32:43;;;;;;;7.70;4.30;;;;;;;3.86;100.00;97413.50;5008875;28;20215;-76
2023/04/14 04:35:10;;;;;;;8.07;4.40;;;;;;;3.76;100.00;97411.47;5009181;28;20699;-76
2023/04/14 04:37:38;;;;;;;7.37;3.77;;;;;;;3.75;100.00;97417.63;5009483;28;20208;-76
2023/04/14 04:40:06;;;;;;;7.40;4.17;;;;;;;3.67;100.00;97415.41;5008327;28;20230;-76
2023/04/14 04:42:32;;;;;;;7.70;3.80;;;;;;;3.64;100.00;97422.56;5009044;28;20214;-76
2023/04/14 04:44:59;;;;;;;6.23;3.97;;;;;;;3.57;100.00;97422.06;5009112;28;20211;-76
2023/04/14 04:47:25;;;;;;;7.77;3.63;;;;;;;3.51;100.00;97424.16;5009038;28;20213;-76
2023/04/14 04:49:53;;;;;;;6.50;3.57;;;;;;;3.62;100.00;97430.50;5008175;28;20295;-76
2023/04/14 04:52:19;;;;;;;7.50;4.00;;;;;;;3.49;100.00;97428.63;5009071;28;20236;-76
2023/04/14 04:54:50;;;;;;;10.70;3.70;;;;;;;3.36;100.00;97441.47;5009045;28;20218;-75
2023/04/14 04:57:17;;;;;;;6.70;3.80;;;;;;;3.27;100.00;97444.56;5009453;28;20231;-77
2023/04/14 04:59:43;;;;;;;6.60;3.40;;;;;;;3.18;100.00;97444.19;5008080;28;20254;-77
2023/04/14 05:02:10;;;;;;;8.53;3.83;;;;;;;3.08;100.00;97443.81;5008665;28;20207;-76
2023/04/14 05:04:36;;;;;;;7.63;3.70;;;;;;;3.05;100.00;97443.94;5008574;28;20214;-76
2023/04/14 05:07:04;;;;;;;5.53;3.90;;;;;;;3.02;100.00;97438.91;5008906;28;20224;-76
2023/04/14 05:09:31;;;;;;;6.33;4.17;;;;;;;3.07;100.00;97441.28;5008402;28;20309;-76
2023/04/14 05:11:57;;;;;;;9.93;4.27;;;;;;;3.11;100.00;97443.63;5008725;28;20237;-76
2023/04/14 05:14:24;;;;;;;8.20;4.50;;;;;;;3.14;100.00;97453.94;5008632;28;20220;-76
2023/04/14 05:16:51;;;;;;;9.53;4.80;;;;;;;3.12;100.00;97450.53;5009030;28;20250;-76
2023/04/14 05:19:17;;;;;;;7.37;4.63;;;;;;;3.17;100.00;97459.00;5008152;28;20213;-75
2023/04/14 05:21:44;;;;;;;8.83;4.80;;;;;;;3.20;100.00;97458.00;5008472;28;20241;-76
2023/04/14 05:24:13;;;;;;;10.93;4.93;;;;;;;3.27;100.00;97452.41;5008555;28;20221;-76
2023/04/14 05:26:39;;;;;;;8.60;4.20;;;;;;;3.34;100.00;97453.75;5008824;28;20223;-76
2023/04/14 05:29:06;;;;;;;7.23;4.40;;;;;;;3.39;100.00;97446.53;5008439;28;20225;-75
2023/04/14 05:31:32;;;;;;;7.37;4.10;;;;;;;3.49;100.00;97444.28;5008551;28;20237;-76
2023/04/14 05:33:59;;;;;;;10.20;5.03;;;;;;;3.62;100.00;97442.72;5009059;28;20210;-76
2023/04/14 05:36:26;;;;;;;7.23;3.57;;;;;;;3.70;100.00;97451.84;5008871;28;20225;-76
2023/04/14 05:38:52;;;;;;;11.13;3.80;;;;;;;3.83;100.00;97460.72;5008638;28;20284;-76
2023/04/14 05:41:20;;;;;;;8.37;4.17;;;;;;;3.93;100.00;97467.16;5008251;28;20270;-75
2023/04/14 05:43:47;;;;;;;10.37;4.50;;;;;;;4.04;100.00;97470.03;5008442;28;20653;-76
2023/04/14 05:46:13;;;;;;;8.80;3.30;;;;;;;4.16;100.00;97468.53;5009122;28;20209;-76
2023/04/14 05:48:40;;;;;;;8.30;3.30;;;;;;;4.20;100.00;97473.50;5009028;28;20232;-76
2023/04/14 05:51:09;;;;;;;6.37;2.70;;;;;;;4.29;100.00;97473.00;5007947;28;20239;-75
2023/04/14 05:53:36;;;;;;;8.60;5.07;;;;;;;4.40;100.00;97472.44;5008487;28;20221;-74
2023/04/14 05:56:02;;;;;;;6.50;3.40;;;;;;;4.50;100.00;97487.53;5008107;28;20209;-75
2023/04/14 05:58:30;;;;;;;6.20;3.20;;;;;;;4.58;100.00;97490.53;5008453;28;20228;-74
2023/04/14 06:00:56;;;;;;;8.40;3.27;;;;;;;4.71;100.00;97494.16;5007966;28;20221;-75
2023/04/14 06:03:26;;;;;;;4.87;2.90;;;;;;;4.78;100.00;97495.53;5008464;28;20209;-76
2023/04/14 06:05:52;;;;;;;6.57;3.57;;;;;;;4.85;100.00;97496.00;5008370;28;20240;-76
2023/04/14 06:08:19;;;;;;;6.47;2.90;;;;;;;4.91;100.00;97493.91;5008686;28;20223;-77
2023/04/14 06:10:46;;;;;;;5.97;3.27;;;;;;;5.04;100.00;97494.88;5007648;28;20227;-75
2023/04/14 06:13:12;;;;;;;4.97;3.10;;;;;;;5.15;100.00;97500.34;5008079;28;20213;-74
2023/04/14 06:15:40;;;;;;;5.63;2.37;;;;;;;5.28;100.00;97501.34;5007842;28;20691;-75
2023/04/14 06:18:06;;;;;;;5.57;2.57;;;;;;;5.42;100.00;97500.50;5011491;28;20217;-75
2023/04/14 06:20:35;;;;;;;3.57;2.20;;;;;;;5.50;100.00;97488.63;5010791;28;20342;-76
2023/04/14 06:23:01;;;;;;;5.87;2.10;;;;;;;5.50;100.00;97486.00;5011864;28;20205;-76
2023/04/14 06:25:27;;;;;;;4.90;2.17;;;;;;;5.69;100.00;97486.59;5012114;28;20209;-77
2023/04/14 06:27:54;;;;;;;5.50;2.00;;;;;;;5.83;100.00;97486.66;5011982;28;20217;-77
2023/04/14 06:30:20;;;;;;;3.63;2.07;;;;;;;5.94;100.00;97492.13;5011543;28;20226;-77
2023/04/14 06:32:52;;;;;;;4.90;2.30;;;;;;;6.04;100.00;97492.41;5012150;28;20627;-76
2023/04/14 06:35:19;;;;;;;5.33;2.53;;;;;;;6.04;100.00;97482.72;5012136;28;20594;-77
2023/04/14 06:37:45;;;;;;;3.47;1.87;;;;;;;6.14;100.00;97483.84;5011479;28;20210;-76
2023/04/14 06:40:12;;;;;;;5.77;2.23;;;;;;;6.18;100.00;97487.13;5010936;28;20575;-77
2023/04/14 06:42:39;;;;;;;4.23;2.23;;;;;;;6.29;100.00;97490.75;5011319;28;20692;-76
2023/04/14 06:45:06;;;;;;;4.03;1.73;;;;;;;6.52;100.00;97478.81;5011418;28;20232;-77
2023/04/14 06:47:33;;;;;;;6.03;1.80;;;;;;;6.53;100.00;97465.59;5011253;28;20324;-76
2023/04/14 06:50:01;;;;;;;5.17;1.87;;;;;;;6.57;100.00;97461.00;5011101;28;20593;-76
2023/04/14 06:52:28;;;;;;;5.80;2.20;;;;;;;6.73;100.00;97466.97;5011330;28;20648;-76
2023/04/14 06:54:54;;;;;;;5.70;2.60;;;;;;;6.88;100.00;97461.56;5011977;28;20210;-77
2023/04/14 06:57:21;;;;;;;6.50;2.20;;;;;;;7.02;99.42;97464.13;5011406;28;20217;-75
2023/04/14 06:59:47;;;;;;;5.53;1.97;;;;;;;7.15;99.12;97470.25;5010552;28;20317;-78
2023/04/14 07:02:14;;;;;;;4.30;1.60;;;;;;;7.28;96.20;97450.94;5009475;28;20235;-77
2023/04/14 07:04:40;;;;;;;6.33;1.80;;;;;;;7.34;93.08;97449.72;5009761;28;20346;-76
2023/04/14 07:07:08;;;;;;;4.37;1.73;;;;;;;7.36;89.91;97440.75;5010245;28;20213;-75
2023/04/14 07:09:35;;;;;;;7.43;2.50;;;;;;;7.42;89.44;97442.13;5008733;28;20209;-76
2023/04/14 07:12:01;;;;;;;6.77;1.97;;;;;;;7.57;89.19;97435.81;5008312;28;20735;-77
2023/04/14 07:14:28;;;;;;;7.13;1.87;;;;;;;7.71;85.31;97425.22;5009803;28;20211;-76
2023/04/14 07:16:54;;;;;;;4.17;1.93;;;;;;;7.69;86.45;97425.31;5009680;28;20682;-77
2023/04/14 07:19:23;;;;;;;5.53;1.70;;;;;;;7.79;87.20;97433.41;5008112;28;20812;-76
2023/04/14 07:21:49;;;;;;;5.50;1.77;;;;;;;7.76;85.21;97413.41;5007218;28;20716;-76
2023/04/14 07:24:20;;;;;;;6.87;1.60;;;;;;;7.88;84.59;97409.09;5009112;28;20211;-76
2023/04/14 07:26:46;;;;;;;3.77;1.60;;;;;;;8.00;83.01;97416.97;5008462;28;20582;-76
2023/04/14 07:29:13;;;;;;;5.83;1.60;;;;;;;8.04;81.28;97404.44;5008248;28;20217;-75
2023/04/14 07:31:39;;;;;;;6.67;1.63;;;;;;;8.09;79.86;97403.16;5008788;28;20246;-76
2023/04/14 07:34:06;;;;;;;6.47;1.90;;;;;;;8.12;79.95;97402.09;5008394;28;20218;-75
2023/04/14 07:36:33;;;;;;;4.77;1.70;;;;;;;8.21;80.73;97406.75;5009351;28;20582;-76
2023/04/14 07:39:04;;;;;;;4.87;1.80;;;;;;;8.23;83.79;97420.66;5009046;28;20560;-76
2023/04/14 07:41:32;;;;;;;4.17;1.87;;;;;;;8.50;81.81;97410.78;5007496;28;20235;-73
2023/04/14 07:43:59;;;;;;;4.83;1.77;;;;;;;8.52;83.06;97419.41;5008977;28;20216;-77
2023/04/14 07:46:26;;;;;;;7.47;1.97;;;;;;;8.62;84.34;97418.63;5009112;28;20217;-78
2023/04/14 07:48:53;;;;;;;4.23;1.60;;;;;;;8.68;84.09;97417.31;5009677;28;20280;-80
2023/04/14 07:51:19;;;;;;;9.50;2.10;;;;;;;8.82;79.74;97404.00;5006178;28;20224;-80
2023/04/14 07:53:46;;;;;;;4.77;1.80;;;;;;;8.86;81.56;97418.63;5009288;28;20297;-80
2023/04/14 07:56:12;;;;;;;5.53;2.00;;;;;;;8.97;77.52;97402.84;5009560;28;20221;-79
2023/04/14 07:58:40;;;;;;;5.93;1.60;;;;;;;9.04;75.47;97393.53;5008565;28;20211;-80
2023/04/14 08:01:07;;;;;;;3.93;1.63;;;;;;;9.02;76.77;97406.84;5007981;28;20248;-81
2023/04/14 08:03:35;;;;;;;4.47;1.70;;;;;;;9.06;77.12;97418.00;5008870;28;20218;-80
2023/04/14 08:06:02;;;;;;;5.53;2.20;;;;;;;9.09;75.98;97407.22;5008489;28;20586;-81
2023/04/14 08:08:29;;;;;;;6.03;2.00;;;;;;;9.24;77.12;97411.34;5008533;28;20215;-81
2023/04/14 08:10:55;;;;;;;2.60;1.43;;;;;;;9.31;73.45;97392.31;5007522;28;20244;-81
2023/04/14 08:13:22;;;;;;;4.37;1.63;;;;;;;9.34;72.91;97402.63;5008732;28;20240;-81
2023/04/14 08:15:50;;;;;;;3.90;1.87;;;;;;;9.35;72.87;97406.09;5008377;28;20648;-80
2023/04/14 08:18:17;;;;;;;6.03;1.53;;;;;;;9.35;72.22;97400.81;5009306;28;20213;-79
2023/04/14 08:20:45;;;;;;;4.87;1.93;;;;;;;9.46;72.40;97401.69;5038892;22;20313;-82
2023/04/14 08:23:11;;;;;;;3.60;1.70;;;;;;;9.64;74.29;97410.00;5071175;28;20256;-81
2023/04/14 08:25:38;;;;;;;5.07;1.80;;;;;;;9.65;71.75;97390.56;5071043;28;20214;-80
2023/04/14 08:28:05;;;;;;;4.57;1.43;;;;;;;9.69;70.92;97389.38;5071118;28;20216;-82
2023/04/14 08:30:34;;;;;;;6.77;1.67;;;;;;;9.68;71.06;97398.25;5071231;28;20235;-83
2023/04/14 08:33:04;;;;;;;5.07;1.50;;;;;;;9.64;70.09;97387.09;5071944;28;20230;-81
2023/04/14 08:35:31;;;;;;;5.90;1.90;;;;;;;9.80;69.94;97389.41;5071601;28;20207;-81
2023/04/14 08:37:59;;;;;;;6.40;1.70;;;;;;;9.75;70.43;97387.13;5071963;28;20199;-82
2023/04/14 08:40:33;;;;;;;5.90;1.97;;;;;;;9.88;71.79;97395.75;5070535;28;20231;-80
2023/04/14 08:42:59;;;;;;;5.17;1.83;;;;;;;10.06;69.15;97390.84;5071821;28;20670;-82
2023/04/14 08:45:26;;;;;;;6.38;2.10;;;;;;;10.08;69.21;97383.66;5070814;28;20429;-81
2023/04/14 08:47:56;;;;;;;4.97;1.60;;;;;;;10.27;72.53;97405.03;5072067;28;20209;-83
2023/04/14 08:50:26;;;;;;;4.43;1.97;;;;;;;10.18;68.38;97371.41;5071037;28;20244;-79
2023/04/14 08:52:55;;;;;;;3.63;1.70;;;;;;;10.24;68.63;97378.84;5071421;28;20697;-77
2023/04/14 08:55:24;;;;;;;4.47;1.83;;;;;;;10.33;68.43;97375.50;5071543;28;20252;-77
2023/04/14 08:57:51;;;;;;;3.57;1.57;;;;;;;10.42;68.88;97382.66;5071389;28;20208;-77
2023/04/14 09:00:18;;;;;;;5.97;2.10;;;;;;;10.45;68.72;97372.69;5070938;28;20229;-77
2023/04/14 09:02:46;;;;;;;5.40;1.90;;;;;;;10.64;68.25;97379.97;5071457;28;20212;-76
2023/04/14 09:05:12;;;;;;;3.50;1.77;;;;;;;10.61;64.36;97356.44;5071442;28;20218;-77
2023/04/14 09:07:41;;;;;;;5.00;1.77;;;;;;;10.60;64.74;97360.88;5071300;28;20219;-77
2023/04/14 09:10:10;;;;;;;5.43;2.27;;;;;;;10.70;64.71;97366.25;5070586;28;20206;-77
2023/04/14 09:12:38;;;;;;;4.70;1.63;;;;;;;10.76;63.19;97357.84;5071342;28;20224;-77
2023/04/14 09:15:06;;;;;;;4.97;1.73;;;;;;;10.78;61.65;97350.59;5071418;28;20218;-77
2023/04/14 09:17:34;;;;;;;6.80;3.20;;;;;;;11.02;62.71;97356.50;5071189;28;20707;-77
2023/04/14 09:20:01;;;;;;;7.40;2.30;;;;;;;10.85;61.48;97354.41;5070404;28;20207;-77
2023/04/14 09:22:27;;;;;;;7.70;1.87;;;;;;;10.93;61.51;97350.19;5070991;28;20214;-75
2023/04/14 09:24:57;;;;;;;7.53;2.10;;;;;;;11.00;60.83;97342.59;5071208;28;20207;-76
2023/04/14 09:27:23;;;;;;;7.93;1.90;;;;;;;11.06;60.04;97339.44;5071306;28;20273;-78
2023/04/14 09:29:52;;;;;;;4.53;1.53;;;;;;;11.11;61.35;97351.28;5070545;28;20208;-80
2023/04/14 09:32:19;;;;;;;4.60;1.93;;;;;;;11.16;59.82;97337.69;5070733;28;20325;-77
2023/04/14 09:34:51;;;;;;;5.83;1.70;;;;;;;11.30;60.58;97347.94;5071042;28;20215;-78
2023/04/14 09:37:18;;;;;;;6.53;1.80;;;;;;;11.53;63.83;97375.94;5070861;28;20257;-79
2023/04/14 09:39:49;;;;;;;8.83;1.90;;;;;;;11.72;60.23;97347.81;5070456;28;20219;-79
2023/04/14 09:42:17;;;;;;;4.73;1.97;;;;;;;11.84;59.61;97345.91;5071090;28;20300;-76
2023/04/14 09:44:54;;;;;;;6.13;1.90;;;;;;;12.04;59.30;97339.72;5071127;28;20210;-80
2023/04/14 09:47:22;;;;;;;4.93;1.70;;;;;;;12.00;58.12;97346.25;5070856;28;20218;-86
2023/04/14 09:49:56;;;;;;;5.27;2.00;;;;;;;11.96;57.64;97339.53;5070298;28;20211;-79
2023/04/14 09:52:35;;;;;;;4.33;1.80;;;;;;;11.89;59.81;97354.28;5075079;28;20280;-80
2023/04/14 09:55:01;;;;;;;5.10;1.67;;;;;;;12.11;57.67;97339.03;5075661;28;20203;-78
2023/04/14 09:57:29;;;;;;;5.23;1.80;;;;;;;12.24;56.00;97320.25;5075884;28;20210;-79
2023/04/14 09:59:56;;;;;;;4.53;1.80;;;;;;;12.40;55.40;97329.34;5074641;28;20256;-77
2023/04/14 10:02:22;;;;;;;4.10;1.80;;;;;;;12.35;54.99;97320.97;5085910;28;20209;-77
2023/04/14 10:05:03;;;;;;;5.23;1.87;;;;;;;12.32;54.70;97317.75;5076990;28;20203;-77
2023/04/14 10:07:30;;;;;;;6.70;2.07;;;;;;;12.01;54.64;97305.56;5075165;28;20274;-78
2023/04/14 10:09:57;;;;;;;5.77;1.50;;;;;;;11.86;55.60;97312.19;5074641;28;20588;-77
2023/04/14 10:12:23;;;;;;;4.73;1.50;;;;;;;11.74;57.43;97321.22;5074719;28;20234;-78
2023/04/14 10:14:51;;;;;;;3.77;1.80;;;;;;;12.05;57.37;97322.84;5074498;28;20668;-77
2023/04/14 10:17:18;;;;;;;5.40;1.70;;;;;;;12.33;58.72;97337.97;5074797;28;20207;-75
2023/04/14 10:19:46;;;;;;;5.47;1.97;;;;;;;12.59;57.90;97323.25;5073709;28;20253;-75
2023/04/14 10:22:13;;;;;;;3.30;1.50;;;;;;;12.85;58.24;97324.38;5074377;28;20509;-77
2023/04/14 10:24:40;;;;;;;4.60;1.70;;;;;;;12.66;54.01;97279.31;5074401;28;20219;-77
2023/04/14 10:27:07;;;;;;;5.27;1.87;;;;;;;12.57;55.47;97294.25;5074422;28;20219;-76
2023/04/14 10:29:34;;;;;;;6.17;1.77;;;;;;;12.41;55.89;97295.75;5073783;28;20252;-78
2023/04/14 10:32:05;;;;;;;4.80;1.90;;;;;;;12.27;54.50;97285.53;5074377;28;20241;-78
2023/04/14 10:34:33;;;;;;;4.83;1.87;;;;;;;12.48;54.94;97275.69;5074338;28;20221;-78
2023/04/14 10:37:12;;;;;;;4.77;1.53;;;;;;;12.75;53.53;97254.59;5074320;28;20210;-76
2023/04/14 10:39:39;;;;;;;6.13;2.07;;;;;;;12.96;52.29;97244.72;5073497;28;20305;-78
2023/04/14 10:42:06;;;;;;;5.57;1.77;;;;;;;13.15;52.67;97255.28;5074364;28;20258;-80
2023/04/14 10:44:33;;;;;;;5.50;1.60;;;;;;;13.33;51.71;97245.63;5074107;28;20203;-79
2023/04/14 10:47:03;;;;;;;4.83;1.70;;;;;;;13.28;51.52;97242.56;5073969;28;20208;-78
2023/04/14 10:49:31;;;;;;;5.70;2.33;;;;;;;13.39;55.54;97283.00;5073321;28;20219;-79
2023/04/14 10:51:59;;;;;;;5.50;2.27;;;;;;;13.52;52.02;97245.53;5074122;28;20228;-78
2023/04/14 10:54:26;;;;;;;4.97;1.43;;;;;;;13.61;52.84;97249.97;5073644;28;20274;-78
2023/04/14 10:57:09;;;;;;;6.83;2.47;;;;;;;13.66;51.38;97234.44;5074086;28;20220;-78
2023/04/14 10:59:35;;;;;;;3.63;1.43;;;;;;;13.56;51.58;97242.44;5073040;28;20277;-80
2023/04/14 11:02:03;;;;;;;4.87;1.67;;;;;;;13.27;51.07;97224.97;5070495;28;20235;-81
2023/04/14 11:04:30;;;;;;;2.70;1.47;;;;;;;13.37;52.92;97242.53;5071075;28;20760;-78
2023/04/14 11:06:57;;;;;;;3.57;1.70;;;;;;;13.69;54.22;97242.13;5070937;28;20291;-79
2023/04/14 11:09:33;;;;;;;7.13;1.70;;;;;;;13.90;51.53;97213.50;5070332;28;20207;-81
2023/04/14 11:12:21;;;;;;;6.53;1.57;;;;;;;14.00;50.62;97206.31;5072909;28;20224;-79
2023/04/14 11:14:48;;;;;;;3.50;1.70;;;;;;;14.16;50.51;97199.34;5072430;28;20201;-79
2023/04/14 11:17:21;;;;;;;5.77;1.50;;;;;;;14.19;49.73;97195.59;5073364;28;20219;-79
2023/04/14 11:19:52;;;;;;;3.10;1.30;;;;;;;14.35;50.21;97201.06;5072953;28;20205;-80
2023/04/14 11:22:37;;;;;;;5.33;1.80;;;;;;;14.39;49.76;97194.44;5072699;28;20230;-80
2023/04/14 11:25:04;;;;;;;3.53;1.23;;;;;;;14.32;48.00;97170.31;5073651;28;20291;-80
2023/04/14 11:27:32;;;;;;;3.07;1.30;;;;;;;14.42;50.81;97210.09;5073319;28;20228;-80
2023/04/14 11:30:00;;;;;;;4.50;1.80;;;;;;;14.42;49.39;97189.66;5072848;28;20215;-79
2023/04/14 11:32:28;;;;;;;2.97;1.40;;;;;;;14.29;48.52;97169.78;5073201;28;20205;-79
2023/04/14 11:34:54;;;;;;;6.17;2.27;;;;;;;14.16;49.46;97183.41;5073467;28;20240;-79
2023/04/14 11:37:21;;;;;;;4.10;1.90;;;;;;;13.97;48.11;97172.91;5073308;28;20241;-79
2023/04/14 11:39:49;;;;;;;4.00;1.47;;;;;;;13.92;47.92;97171.66;5072622;28;20212;-79